sensor_id;sensor_type;location;lat;lon;timestamp;P1;durP1;ratioP1;P2;durP2;ratioP2
39404;SDS011;25121;51.090;17.038;2023-04-12T07:08:22;12.55;;;7.13;;
39404;SDS011;25121;51.090;17.038;2023-04-12T07:57:01;9.02;;;4.28;;
39404;SDS011;25121;51.090;17.038;2023-04-12T07:58:28;8.93;;;4.20;;
39404;SDS011;25121;51.090;17.038;2023-04-12T07:59:54;8.00;;;4.97;;
39404;SDS011;25121;51.090;17.038;2023-04-12T08:01:42;13.45;;;4.25;;
39404;SDS011;25121;51.090;17.038;2023-04-12T08:03:23;11.30;;;4.47;;
39404;SDS011;25121;51.090;17.038;2023-04-12T08:05:12;5.53;;;3.95;;
39404;SDS011;25121;51.090;17.038;2023-04-12T09:24:40;6.35;;;1.90;;
39404;SDS011;25121;51.090;17.038;2023-04-12T09:29:48;2.80;;;2.00;;
39404;SDS011;25121;51.090;17.038;2023-04-12T09:31:44;5.18;;;2.40;;
39404;SDS011;25121;51.090;17.038;2023-04-12T09:33:19;5.25;;;3.40;;
39404;SDS011;25121;51.090;17.038;2023-04-12T09:34:53;5.82;;;2.67;;
39404;SDS011;25121;51.090;17.038;2023-04-12T09:36:36;6.10;;;2.92;;
39404;SDS011;25121;51.090;17.038;2023-04-12T09:38:05;4.53;;;2.50;;
39404;SDS011;25121;51.090;17.038;2023-04-12T09:39:53;5.50;;;3.85;;
39404;SDS011;25121;51.090;17.038;2023-04-12T09:41:24;5.40;;;2.35;;
39404;SDS011;25121;51.090;17.038;2023-04-12T10:04:19;5.65;;;2.15;;
39404;SDS011;25121;51.090;17.038;2023-04-12T10:05:42;5.05;;;2.50;;
39404;SDS011;25121;51.090;17.038;2023-04-12T10:07:09;5.25;;;2.13;;
39404;SDS011;25121;51.090;17.038;2023-04-12T10:08:39;4.65;;;2.40;;
39404;SDS011;25121;51.090;17.038;2023-04-12T10:10:04;6.32;;;2.30;;
39404;SDS011;25121;51.090;17.038;2023-04-12T10:11:28;4.15;;;2.45;;
39404;SDS011;25121;51.090;17.038;2023-04-12T10:12:50;5.45;;;2.83;;
39404;SDS011;25121;51.090;17.038;2023-04-12T10:14:13;7.03;;;2.97;;
39404;SDS011;25121;51.090;17.038;2023-04-12T10:15:39;5.20;;;2.50;;
39404;SDS011;25121;51.090;17.038;2023-04-12T10:17:03;6.68;;;2.70;;
39404;SDS011;25121;51.090;17.038;2023-04-12T10:18:27;4.45;;;2.08;;
39404;SDS011;25121;51.090;17.038;2023-04-12T10:20:54;4.57;;;1.83;;
39404;SDS011;25121;51.090;17.038;2023-04-12T10:22:23;5.00;;;2.15;;
39404;SDS011;25121;51.090;17.038;2023-04-12T10:23:49;2.67;;;1.38;;
39404;SDS011;25121;51.090;17.038;2023-04-12T10:25:16;4.32;;;2.33;;
39404;SDS011;25121;51.090;17.038;2023-04-12T10:26:40;5.45;;;1.92;;
39404;SDS011;25121;51.090;17.038;2023-04-12T10:28:14;5.78;;;2.22;;
39404;SDS011;25121;51.090;17.038;2023-04-12T10:30:38;3.83;;;1.92;;
39404;SDS011;25121;51.090;17.038;2023-04-12T10:38:00;5.50;;;2.13;;
39404;SDS011;25121;51.090;17.038;2023-04-12T10:39:37;3.95;;;2.33;;
39404;SDS011;25121;51.090;17.038;2023-04-12T10:41:13;8.20;;;2.65;;
39404;SDS011;25121;51.090;17.038;2023-04-12T10:42:48;5.78;;;2.05;;
39404;SDS011;25121;51.090;17.038;2023-04-12T10:44:51;5.07;;;2.20;;
39404;SDS011;25121;51.090;17.038;2023-04-12T10:48:27;4.15;;;1.85;;
39404;SDS011;25121;51.090;17.038;2023-04-12T10:52:12;6.10;;;2.03;;
39404;SDS011;25121;51.090;17.038;2023-04-12T10:53:40;5.80;;;1.90;;
39404;SDS011;25121;51.090;17.038;2023-04-12T10:57:06;3.55;;;1.80;;
39404;SDS011;25121;51.090;17.038;2023-04-12T10:59:30;3.13;;;1.83;;
39404;SDS011;25121;51.090;17.038;2023-04-12T11:13:37;4.88;;;2.30;;
39404;SDS011;25121;51.090;17.038;2023-04-12T11:19:35;3.25;;;2.42;;
39404;SDS011;25121;51.090;17.038;2023-04-12T11:21:54;3.92;;;2.42;;
39404;SDS011;25121;51.090;17.038;2023-04-12T12:04:46;6.50;;;2.85;;
39404;SDS011;25121;51.090;17.038;2023-04-12T12:06:27;4.88;;;2.97;;
39404;SDS011;25121;51.090;17.038;2023-04-12T12:07:58;5.55;;;3.10;;
39404;SDS011;25121;51.090;17.038;2023-04-12T12:09:30;7.97;;;3.40;;
39404;SDS011;25121;51.090;17.038;2023-04-12T12:11:12;3.13;;;2.80;;
39404;SDS011;25121;51.090;17.038;2023-04-12T12:15:29;12.25;;;5.15;;
39404;SDS011;25121;51.090;17.038;2023-04-12T12:16:54;5.82;;;3.20;;
39404;SDS011;25121;51.090;17.038;2023-04-12T12:18:39;4.82;;;2.97;;
39404;SDS011;25121;51.090;17.038;2023-04-12T12:20:20;7.15;;;3.40;;
39404;SDS011;25121;51.090;17.038;2023-04-12T12:24:17;6.93;;;3.70;;
39404;SDS011;25121;51.090;17.038;2023-04-12T13:15:27;4.60;;;3.00;;
39404;SDS011;25121;51.090;17.038;2023-04-12T13:17:15;5.07;;;2.75;;
39404;SDS011;25121;51.090;17.038;2023-04-12T13:55:45;4.65;;;2.42;;
39404;SDS011;25121;51.090;17.038;2023-04-12T13:57:30;6.05;;;3.33;;
39404;SDS011;25121;51.090;17.038;2023-04-12T13:59:01;4.68;;;2.50;;
39404;SDS011;25121;51.090;17.038;2023-04-12T14:01:48;5.13;;;2.53;;
39404;SDS011;25121;51.090;17.038;2023-04-12T14:03:21;5.18;;;2.85;;
39404;SDS011;25121;51.090;17.038;2023-04-12T14:05:23;6.05;;;3.28;;
39404;SDS011;25121;51.090;17.038;2023-04-12T14:06:49;3.30;;;2.85;;
39404;SDS011;25121;51.090;17.038;2023-04-12T14:08:23;6.30;;;3.83;;
39404;SDS011;25121;51.090;17.038;2023-04-12T14:22:54;5.28;;;2.60;;
39404;SDS011;25121;51.090;17.038;2023-04-12T14:24:30;5.97;;;3.05;;
39404;SDS011;25121;51.090;17.038;2023-04-12T14:27:05;9.98;;;2.92;;
39404;SDS011;25121;51.090;17.038;2023-04-12T14:32:03;3.77;;;2.67;;
39404;SDS011;25121;51.090;17.038;2023-04-12T14:34:31;6.20;;;3.38;;
39404;SDS011;25121;51.090;17.038;2023-04-12T14:44:33;4.68;;;2.58;;
39404;SDS011;25121;51.090;17.038;2023-04-12T14:46:33;3.85;;;2.63;;
39404;SDS011;25121;51.090;17.038;2023-04-12T14:47:58;5.82;;;2.63;;
39404;SDS011;25121;51.090;17.038;2023-04-12T14:52:00;3.47;;;2.75;;
39404;SDS011;25121;51.090;17.038;2023-04-12T14:57:37;5.07;;;2.95;;
39404;SDS011;25121;51.090;17.038;2023-04-12T14:59:37;4.80;;;2.30;;
39404;SDS011;25121;51.090;17.038;2023-04-12T15:02:33;5.50;;;2.85;;
39404;SDS011;25121;51.090;17.038;2023-04-12T15:04:40;8.25;;;3.28;;
39404;SDS011;25121;51.090;17.038;2023-04-12T15:07:38;3.90;;;2.55;;
39404;SDS011;25121;51.090;17.038;2023-04-12T15:10:32;3.75;;;2.80;;
39404;SDS011;25121;51.090;17.038;2023-04-12T15:15:09;4.65;;;2.80;;
39404;SDS011;25121;51.090;17.038;2023-04-12T15:21:36;3.80;;;2.53;;
39404;SDS011;25121;51.090;17.038;2023-04-12T15:23:01;6.20;;;2.95;;
39404;SDS011;25121;51.090;17.038;2023-04-12T15:24:30;4.38;;;2.58;;
39404;SDS011;25121;51.090;17.038;2023-04-12T15:25:59;6.43;;;2.95;;
39404;SDS011;25121;51.090;17.038;2023-04-12T15:30:02;4.60;;;3.08;;
39404;SDS011;25121;51.090;17.038;2023-04-12T15:31:32;5.55;;;2.90;;
39404;SDS011;25121;51.090;17.038;2023-04-12T15:33:05;5.80;;;3.00;;
39404;SDS011;25121;51.090;17.038;2023-04-12T15:34:30;4.53;;;2.88;;
39404;SDS011;25121;51.090;17.038;2023-04-12T15:48:19;8.35;;;3.03;;
39404;SDS011;25121;51.090;17.038;2023-04-12T15:49:46;4.65;;;2.90;;
39404;SDS011;25121;51.090;17.038;2023-04-12T15:51:14;8.38;;;3.45;;
39404;SDS011;25121;51.090;17.038;2023-04-12T15:52:39;10.67;;;4.07;;
39404;SDS011;25121;51.090;17.038;2023-04-12T15:54:03;6.53;;;3.80;;
39404;SDS011;25121;51.090;17.038;2023-04-12T15:55:26;9.07;;;3.63;;
39404;SDS011;25121;51.090;17.038;2023-04-12T15:57:03;4.53;;;3.28;;
39404;SDS011;25121;51.090;17.038;2023-04-12T16:01:37;5.25;;;3.42;;
39404;SDS011;25121;51.090;17.038;2023-04-12T16:03:06;5.25;;;3.08;;
39404;SDS011;25121;51.090;17.038;2023-04-12T16:04:32;5.72;;;3.67;;
39404;SDS011;25121;51.090;17.038;2023-04-12T16:06:05;5.15;;;3.05;;
39404;SDS011;25121;51.090;17.038;2023-04-12T16:07:27;3.53;;;2.80;;
39404;SDS011;25121;51.090;17.038;2023-04-12T16:12:19;10.57;;;3.47;;
39404;SDS011;25121;51.090;17.038;2023-04-12T16:13:48;7.30;;;3.58;;
39404;SDS011;25121;51.090;17.038;2023-04-12T16:15:11;8.02;;;3.70;;
39404;SDS011;25121;51.090;17.038;2023-04-12T16:16:38;6.13;;;3.55;;
39404;SDS011;25121;51.090;17.038;2023-04-12T16:18:17;7.85;;;3.92;;
39404;SDS011;25121;51.090;17.038;2023-04-12T16:19:46;7.85;;;5.35;;
39404;SDS011;25121;51.090;17.038;2023-04-12T16:21:10;8.82;;;4.40;;
39404;SDS011;25121;51.090;17.038;2023-04-12T16:22:36;8.07;;;4.30;;
39404;SDS011;25121;51.090;17.038;2023-04-12T16:24:06;8.40;;;4.03;;
39404;SDS011;25121;51.090;17.038;2023-04-12T16:25:32;5.30;;;3.53;;
39404;SDS011;25121;51.090;17.038;2023-04-12T16:26:55;6.53;;;3.60;;
39404;SDS011;25121;51.090;17.038;2023-04-12T16:28:19;5.72;;;3.30;;
39404;SDS011;25121;51.090;17.038;2023-04-12T16:29:41;8.45;;;3.60;;
39404;SDS011;25121;51.090;17.038;2023-04-12T16:31:04;11.43;;;3.70;;
39404;SDS011;25121;51.090;17.038;2023-04-12T16:32:41;8.63;;;4.00;;
39404;SDS011;25121;51.090;17.038;2023-04-12T16:34:06;8.40;;;3.75;;
39404;SDS011;25121;51.090;17.038;2023-04-12T16:35:56;8.93;;;3.53;;
39404;SDS011;25121;51.090;17.038;2023-04-12T16:37:21;10.35;;;5.40;;
39404;SDS011;25121;51.090;17.038;2023-04-12T16:38:44;11.32;;;6.18;;
39404;SDS011;25121;51.090;17.038;2023-04-12T16:40:11;11.40;;;5.40;;
39404;SDS011;25121;51.090;17.038;2023-04-12T16:41:40;7.63;;;4.60;;
39404;SDS011;25121;51.090;17.038;2023-04-12T16:43:03;6.50;;;3.58;;
39404;SDS011;25121;51.090;17.038;2023-04-12T16:44:26;7.00;;;3.70;;
39404;SDS011;25121;51.090;17.038;2023-04-12T16:47:09;11.15;;;4.65;;
39404;SDS011;25121;51.090;17.038;2023-04-12T16:48:34;8.90;;;3.55;;
39404;SDS011;25121;51.090;17.038;2023-04-12T16:50:01;4.60;;;2.95;;
39404;SDS011;25121;51.090;17.038;2023-04-12T16:51:29;7.80;;;3.65;;
39404;SDS011;25121;51.090;17.038;2023-04-12T16:53:00;5.35;;;3.40;;
39404;SDS011;25121;51.090;17.038;2023-04-12T16:54:21;6.63;;;3.38;;
39404;SDS011;25121;51.090;17.038;2023-04-12T16:55:44;7.60;;;3.75;;
39404;SDS011;25121;51.090;17.038;2023-04-12T16:57:08;6.53;;;3.90;;
39404;SDS011;25121;51.090;17.038;2023-04-12T16:58:41;7.75;;;3.80;;
39404;SDS011;25121;51.090;17.038;2023-04-12T17:00:08;9.25;;;4.50;;
39404;SDS011;25121;51.090;17.038;2023-04-12T17:01:46;9.15;;;4.72;;
39404;SDS011;25121;51.090;17.038;2023-04-12T17:03:13;7.53;;;4.47;;
39404;SDS011;25121;51.090;17.038;2023-04-12T17:04:40;9.13;;;5.30;;
39404;SDS011;25121;51.090;17.038;2023-04-12T17:06:03;6.10;;;4.80;;
39404;SDS011;25121;51.090;17.038;2023-04-12T17:07:27;9.05;;;5.82;;
39404;SDS011;25121;51.090;17.038;2023-04-12T17:08:51;9.48;;;4.38;;
39404;SDS011;25121;51.090;17.038;2023-04-12T17:10:13;6.93;;;4.10;;
39404;SDS011;25121;51.090;17.038;2023-04-12T17:11:37;10.27;;;3.97;;
39404;SDS011;25121;51.090;17.038;2023-04-12T17:12:59;7.95;;;3.90;;
39404;SDS011;25121;51.090;17.038;2023-04-12T17:14:26;6.93;;;4.20;;
39404;SDS011;25121;51.090;17.038;2023-04-12T17:15:49;10.50;;;4.60;;
39404;SDS011;25121;51.090;17.038;2023-04-12T17:17:18;11.32;;;4.45;;
39404;SDS011;25121;51.090;17.038;2023-04-12T17:18:41;9.73;;;4.35;;
39404;SDS011;25121;51.090;17.038;2023-04-12T17:20:04;11.20;;;4.45;;
39404;SDS011;25121;51.090;17.038;2023-04-12T17:21:41;12.25;;;4.85;;
39404;SDS011;25121;51.090;17.038;2023-04-12T17:23:10;8.88;;;3.55;;
39404;SDS011;25121;51.090;17.038;2023-04-12T17:24:40;5.60;;;3.80;;
39404;SDS011;25121;51.090;17.038;2023-04-12T17:26:51;7.50;;;4.03;;
39404;SDS011;25121;51.090;17.038;2023-04-12T17:30:02;7.88;;;4.75;;
39404;SDS011;25121;51.090;17.038;2023-04-12T17:38:17;11.27;;;5.38;;
39404;SDS011;25121;51.090;17.038;2023-04-12T17:39:45;11.07;;;5.45;;
39404;SDS011;25121;51.090;17.038;2023-04-12T17:44:34;8.60;;;5.32;;
39404;SDS011;25121;51.090;17.038;2023-04-12T17:49:41;9.75;;;4.82;;
39404;SDS011;25121;51.090;17.038;2023-04-12T17:51:04;10.40;;;5.43;;
39404;SDS011;25121;51.090;17.038;2023-04-12T17:52:30;9.57;;;5.35;;
39404;SDS011;25121;51.090;17.038;2023-04-12T17:53:54;10.15;;;5.88;;
39404;SDS011;25121;51.090;17.038;2023-04-12T17:55:17;12.60;;;5.90;;
39404;SDS011;25121;51.090;17.038;2023-04-12T17:56:42;11.30;;;6.28;;
39404;SDS011;25121;51.090;17.038;2023-04-12T17:58:05;10.43;;;6.00;;
39404;SDS011;25121;51.090;17.038;2023-04-12T17:59:29;12.80;;;6.80;;
39404;SDS011;25121;51.090;17.038;2023-04-12T18:00:56;13.10;;;5.95;;
39404;SDS011;25121;51.090;17.038;2023-04-12T18:02:19;13.10;;;6.30;;
39404;SDS011;25121;51.090;17.038;2023-04-12T18:03:53;13.43;;;6.75;;
39404;SDS011;25121;51.090;17.038;2023-04-12T18:05:22;12.63;;;7.07;;
39404;SDS011;25121;51.090;17.038;2023-04-12T18:06:51;14.05;;;6.80;;
39404;SDS011;25121;51.090;17.038;2023-04-12T18:08:18;12.68;;;6.75;;
39404;SDS011;25121;51.090;17.038;2023-04-12T18:09:48;17.30;;;7.28;;
39404;SDS011;25121;51.090;17.038;2023-04-12T18:11:15;16.77;;;7.73;;
39404;SDS011;25121;51.090;17.038;2023-04-12T18:12:45;17.48;;;7.15;;
39404;SDS011;25121;51.090;17.038;2023-04-12T18:19:52;21.50;;;8.27;;
39404;SDS011;25121;51.090;17.038;2023-04-12T18:21:22;15.07;;;8.60;;
39404;SDS011;25121;51.090;17.038;2023-04-12T18:23:00;14.48;;;8.27;;
39404;SDS011;25121;51.090;17.038;2023-04-12T18:24:27;18.90;;;9.35;;
39404;SDS011;25121;51.090;17.038;2023-04-12T18:25:54;19.02;;;11.35;;
39404;SDS011;25121;51.090;17.038;2023-04-12T18:27:17;17.70;;;9.20;;
39404;SDS011;25121;51.090;17.038;2023-04-12T18:28:39;19.02;;;10.50;;
39404;SDS011;25121;51.090;17.038;2023-04-12T18:30:01;19.02;;;10.25;;
39404;SDS011;25121;51.090;17.038;2023-04-12T18:31:25;14.00;;;9.13;;
39404;SDS011;25121;51.090;17.038;2023-04-12T18:32:50;15.70;;;9.40;;
39404;SDS011;25121;51.090;17.038;2023-04-12T18:34:12;14.80;;;8.60;;
39404;SDS011;25121;51.090;17.038;2023-04-12T18:35:38;19.63;;;9.60;;
39404;SDS011;25121;51.090;17.038;2023-04-12T18:37:03;11.85;;;7.93;;
39404;SDS011;25121;51.090;17.038;2023-04-12T18:38:26;14.23;;;8.98;;
39404;SDS011;25121;51.090;17.038;2023-04-12T18:39:51;11.82;;;7.95;;
39404;SDS011;25121;51.090;17.038;2023-04-12T18:41:24;18.20;;;9.27;;
39404;SDS011;25121;51.090;17.038;2023-04-12T18:42:47;16.63;;;8.85;;
39404;SDS011;25121;51.090;17.038;2023-04-12T18:44:09;15.35;;;8.45;;
39404;SDS011;25121;51.090;17.038;2023-04-12T18:45:36;13.63;;;8.13;;
39404;SDS011;25121;51.090;17.038;2023-04-12T18:46:59;13.20;;;8.55;;
39404;SDS011;25121;51.090;17.038;2023-04-12T18:48:25;14.95;;;8.73;;
39404;SDS011;25121;51.090;17.038;2023-04-12T18:49:49;14.07;;;8.75;;
39404;SDS011;25121;51.090;17.038;2023-04-12T18:51:12;17.73;;;9.18;;
39404;SDS011;25121;51.090;17.038;2023-04-12T18:52:44;13.75;;;8.38;;
39404;SDS011;25121;51.090;17.038;2023-04-12T18:54:18;15.80;;;9.10;;
39404;SDS011;25121;51.090;17.038;2023-04-12T18:55:53;19.65;;;10.13;;
39404;SDS011;25121;51.090;17.038;2023-04-12T18:57:20;16.83;;;9.55;;
39404;SDS011;25121;51.090;17.038;2023-04-12T18:58:50;15.32;;;9.95;;
39404;SDS011;25121;51.090;17.038;2023-04-12T19:00:22;19.40;;;10.10;;
39404;SDS011;25121;51.090;17.038;2023-04-12T19:01:48;20.25;;;10.82;;
39404;SDS011;25121;51.090;17.038;2023-04-12T19:03:29;16.73;;;9.98;;
39404;SDS011;25121;51.090;17.038;2023-04-12T19:09:00;23.15;;;11.23;;
39404;SDS011;25121;51.090;17.038;2023-04-12T19:11:23;17.10;;;10.82;;
39404;SDS011;25121;51.090;17.038;2023-04-12T19:12:49;17.80;;;11.23;;
39404;SDS011;25121;51.090;17.038;2023-04-12T19:14:11;17.33;;;10.80;;
39404;SDS011;25121;51.090;17.038;2023-04-12T19:15:33;18.15;;;10.95;;
39404;SDS011;25121;51.090;17.038;2023-04-12T19:16:56;19.90;;;11.02;;
39404;SDS011;25121;51.090;17.038;2023-04-12T19:18:21;16.63;;;9.20;;
39404;SDS011;25121;51.090;17.038;2023-04-12T19:19:47;18.20;;;9.43;;
39404;SDS011;25121;51.090;17.038;2023-04-12T19:21:09;18.98;;;10.18;;
39404;SDS011;25121;51.090;17.038;2023-04-12T19:22:34;16.55;;;9.43;;
39404;SDS011;25121;51.090;17.038;2023-04-12T19:23:56;15.38;;;9.23;;
39404;SDS011;25121;51.090;17.038;2023-04-12T19:25:20;16.45;;;9.13;;
39404;SDS011;25121;51.090;17.038;2023-04-12T19:26:45;22.88;;;9.27;;
39404;SDS011;25121;51.090;17.038;2023-04-12T19:28:08;15.32;;;8.05;;
39404;SDS011;25121;51.090;17.038;2023-04-12T19:29:31;15.10;;;8.70;;
39404;SDS011;25121;51.090;17.038;2023-04-12T19:30:55;21.20;;;8.40;;
39404;SDS011;25121;51.090;17.038;2023-04-12T19:32:20;12.45;;;8.00;;
39404;SDS011;25121;51.090;17.038;2023-04-12T19:33:44;17.60;;;9.13;;
39404;SDS011;25121;51.090;17.038;2023-04-12T19:35:08;15.73;;;8.43;;
39404;SDS011;25121;51.090;17.038;2023-04-12T19:36:30;16.52;;;8.68;;
39404;SDS011;25121;51.090;17.038;2023-04-12T19:37:56;13.63;;;7.93;;
39404;SDS011;25121;51.090;17.038;2023-04-12T19:39:18;12.05;;;7.80;;
39404;SDS011;25121;51.090;17.038;2023-04-12T19:40:42;11.05;;;7.53;;
39404;SDS011;25121;51.090;17.038;2023-04-12T19:42:06;11.70;;;7.03;;
39404;SDS011;25121;51.090;17.038;2023-04-12T19:44:09;19.73;;;8.20;;
39404;SDS011;25121;51.090;17.038;2023-04-12T19:45:34;18.60;;;9.15;;
39404;SDS011;25121;51.090;17.038;2023-04-12T19:46:58;14.35;;;7.82;;
39404;SDS011;25121;51.090;17.038;2023-04-12T19:48:24;16.77;;;8.80;;
39404;SDS011;25121;51.090;17.038;2023-04-12T19:49:46;18.98;;;9.30;;
39404;SDS011;25121;51.090;17.038;2023-04-12T19:51:11;15.88;;;8.57;;
39404;SDS011;25121;51.090;17.038;2023-04-12T19:52:36;17.00;;;9.45;;
39404;SDS011;25121;51.090;17.038;2023-04-12T19:53:58;15.10;;;9.32;;
39404;SDS011;25121;51.090;17.038;2023-04-12T19:55:32;16.80;;;10.55;;
39404;SDS011;25121;51.090;17.038;2023-04-12T19:57:04;16.63;;;9.70;;
39404;SDS011;25121;51.090;17.038;2023-04-12T19:58:30;21.35;;;11.85;;
39404;SDS011;25121;51.090;17.038;2023-04-12T19:59:54;23.95;;;11.23;;
39404;SDS011;25121;51.090;17.038;2023-04-12T20:01:17;20.83;;;10.63;;
39404;SDS011;25121;51.090;17.038;2023-04-12T20:02:41;18.30;;;10.35;;
39404;SDS011;25121;51.090;17.038;2023-04-12T20:04:07;17.08;;;10.68;;
39404;SDS011;25121;51.090;17.038;2023-04-12T20:05:49;21.45;;;9.77;;
39404;SDS011;25121;51.090;17.038;2023-04-12T20:07:31;18.67;;;10.88;;
39404;SDS011;25121;51.090;17.038;2023-04-12T20:08:59;16.92;;;10.32;;
39404;SDS011;25121;51.090;17.038;2023-04-12T20:10:38;21.08;;;11.05;;
39404;SDS011;25121;51.090;17.038;2023-04-12T20:12:02;16.95;;;10.88;;
39404;SDS011;25121;51.090;17.038;2023-04-12T20:13:28;22.42;;;11.55;;
39404;SDS011;25121;51.090;17.038;2023-04-12T20:14:51;22.52;;;12.20;;
39404;SDS011;25121;51.090;17.038;2023-04-12T20:16:17;21.15;;;12.35;;
39404;SDS011;25121;51.090;17.038;2023-04-12T20:17:52;20.40;;;11.90;;
39404;SDS011;25121;51.090;17.038;2023-04-12T20:19:18;23.00;;;11.65;;
39404;SDS011;25121;51.090;17.038;2023-04-12T20:20:45;18.35;;;12.20;;
39404;SDS011;25121;51.090;17.038;2023-04-12T20:22:12;22.05;;;13.30;;
39404;SDS011;25121;51.090;17.038;2023-04-12T20:23:42;18.65;;;12.65;;
39404;SDS011;25121;51.090;17.038;2023-04-12T20:25:05;22.77;;;12.70;;
39404;SDS011;25121;51.090;17.038;2023-04-12T20:26:34;19.08;;;12.15;;
39404;SDS011;25121;51.090;17.038;2023-04-12T20:28:00;17.50;;;12.57;;
39404;SDS011;25121;51.090;17.038;2023-04-12T20:29:28;19.65;;;11.95;;
39404;SDS011;25121;51.090;17.038;2023-04-12T20:30:51;19.48;;;12.50;;
39404;SDS011;25121;51.090;17.038;2023-04-12T20:32:15;19.73;;;12.55;;
39404;SDS011;25121;51.090;17.038;2023-04-12T20:33:41;22.83;;;13.10;;
39404;SDS011;25121;51.090;17.038;2023-04-12T20:35:04;17.23;;;12.30;;
39404;SDS011;25121;51.090;17.038;2023-04-12T20:36:27;19.27;;;12.98;;
39404;SDS011;25121;51.090;17.038;2023-04-12T20:37:51;18.40;;;11.80;;
39404;SDS011;25121;51.090;17.038;2023-04-12T20:39:20;18.95;;;12.30;;
39404;SDS011;25121;51.090;17.038;2023-04-12T20:40:52;20.77;;;13.02;;
39404;SDS011;25121;51.090;17.038;2023-04-12T20:42:18;16.73;;;11.70;;
39404;SDS011;25121;51.090;17.038;2023-04-12T20:43:45;20.15;;;11.98;;
39404;SDS011;25121;51.090;17.038;2023-04-12T20:45:08;20.98;;;12.63;;
39404;SDS011;25121;51.090;17.038;2023-04-12T20:46:32;22.95;;;12.70;;
39404;SDS011;25121;51.090;17.038;2023-04-12T20:48:01;18.52;;;12.52;;
39404;SDS011;25121;51.090;17.038;2023-04-12T20:49:27;23.95;;;13.43;;
39404;SDS011;25121;51.090;17.038;2023-04-12T20:50:50;17.15;;;12.18;;
39404;SDS011;25121;51.090;17.038;2023-04-12T20:52:20;24.33;;;13.30;;
39404;SDS011;25121;51.090;17.038;2023-04-12T20:53:52;19.77;;;12.82;;
39404;SDS011;25121;51.090;17.038;2023-04-12T20:55:21;20.77;;;12.95;;
39404;SDS011;25121;51.090;17.038;2023-04-12T20:56:53;19.70;;;12.65;;
39404;SDS011;25121;51.090;17.038;2023-04-12T20:58:15;29.10;;;14.18;;
39404;SDS011;25121;51.090;17.038;2023-04-12T20:59:39;21.83;;;13.50;;
39404;SDS011;25121;51.090;17.038;2023-04-12T21:01:06;21.38;;;13.80;;
39404;SDS011;25121;51.090;17.038;2023-04-12T21:02:36;21.20;;;13.85;;
39404;SDS011;25121;51.090;17.038;2023-04-12T21:04:00;24.35;;;13.82;;
39404;SDS011;25121;51.090;17.038;2023-04-12T21:05:25;21.60;;;13.68;;
39404;SDS011;25121;51.090;17.038;2023-04-12T21:06:56;20.27;;;13.23;;
39404;SDS011;25121;51.090;17.038;2023-04-12T21:08:21;21.98;;;13.50;;
39404;SDS011;25121;51.090;17.038;2023-04-12T21:09:49;21.50;;;13.65;;
39404;SDS011;25121;51.090;17.038;2023-04-12T21:11:16;22.27;;;13.60;;
39404;SDS011;25121;51.090;17.038;2023-04-12T21:12:39;21.75;;;14.48;;
39404;SDS011;25121;51.090;17.038;2023-04-12T21:14:02;21.73;;;14.18;;
39404;SDS011;25121;51.090;17.038;2023-04-12T21:15:29;21.42;;;13.10;;
39404;SDS011;25121;51.090;17.038;2023-04-12T21:16:55;21.40;;;14.15;;
39404;SDS011;25121;51.090;17.038;2023-04-12T21:18:17;24.50;;;14.45;;
39404;SDS011;25121;51.090;17.038;2023-04-12T21:19:41;20.85;;;13.70;;
39404;SDS011;25121;51.090;17.038;2023-04-12T21:21:04;24.25;;;14.25;;
39404;SDS011;25121;51.090;17.038;2023-04-12T21:22:30;19.40;;;12.73;;
39404;SDS011;25121;51.090;17.038;2023-04-12T21:23:53;23.23;;;13.98;;
39404;SDS011;25121;51.090;17.038;2023-04-12T21:25:15;22.80;;;13.93;;
39404;SDS011;25121;51.090;17.038;2023-04-12T21:26:38;21.73;;;14.30;;
39404;SDS011;25121;51.090;17.038;2023-04-12T21:28:03;20.30;;;13.32;;
39404;SDS011;25121;51.090;17.038;2023-04-12T21:29:26;25.92;;;13.60;;
39404;SDS011;25121;51.090;17.038;2023-04-12T21:30:52;24.15;;;13.85;;
39404;SDS011;25121;51.090;17.038;2023-04-12T21:32:17;22.13;;;13.55;;
39404;SDS011;25121;51.090;17.038;2023-04-12T21:33:38;21.02;;;13.60;;
39404;SDS011;25121;51.090;17.038;2023-04-12T21:35:02;23.00;;;13.73;;
39404;SDS011;25121;51.090;17.038;2023-04-12T21:36:40;20.23;;;14.65;;
39404;SDS011;25121;51.090;17.038;2023-04-12T21:38:11;21.85;;;13.13;;
39404;SDS011;25121;51.090;17.038;2023-04-12T21:39:37;22.25;;;14.07;;
39404;SDS011;25121;51.090;17.038;2023-04-12T21:41:05;24.75;;;13.95;;
39404;SDS011;25121;51.090;17.038;2023-04-12T21:42:34;23.95;;;15.50;;
39404;SDS011;25121;51.090;17.038;2023-04-12T21:43:55;18.30;;;13.27;;
39404;SDS011;25121;51.090;17.038;2023-04-12T21:45:21;21.92;;;14.15;;
39404;SDS011;25121;51.090;17.038;2023-04-12T21:46:49;26.13;;;15.27;;
39404;SDS011;25121;51.090;17.038;2023-04-12T21:48:11;22.00;;;14.27;;
39404;SDS011;25121;51.090;17.038;2023-04-12T21:49:34;25.67;;;14.50;;
39404;SDS011;25121;51.090;17.038;2023-04-12T21:50:58;21.25;;;14.88;;
39404;SDS011;25121;51.090;17.038;2023-04-12T21:52:21;23.80;;;15.13;;
39404;SDS011;25121;51.090;17.038;2023-04-12T21:53:46;28.00;;;16.58;;
39404;SDS011;25121;51.090;17.038;2023-04-12T21:55:09;22.77;;;15.55;;
39404;SDS011;25121;51.090;17.038;2023-04-12T21:56:33;22.20;;;15.52;;
39404;SDS011;25121;51.090;17.038;2023-04-12T21:57:58;26.77;;;17.33;;
39404;SDS011;25121;51.090;17.038;2023-04-12T21:59:26;24.42;;;15.43;;
39404;SDS011;25121;51.090;17.038;2023-04-12T22:00:55;22.30;;;14.70;;
39404;SDS011;25121;51.090;17.038;2023-04-12T22:02:17;23.80;;;15.10;;
39404;SDS011;25121;51.090;17.038;2023-04-12T22:03:41;22.38;;;15.80;;
39404;SDS011;25121;51.090;17.038;2023-04-12T22:05:03;22.60;;;15.73;;
39404;SDS011;25121;51.090;17.038;2023-04-12T22:06:28;26.75;;;16.52;;
39404;SDS011;25121;51.090;17.038;2023-04-12T22:07:53;22.83;;;15.07;;
39404;SDS011;25121;51.090;17.038;2023-04-12T22:09:29;24.77;;;16.42;;
39404;SDS011;25121;51.090;17.038;2023-04-12T22:11:33;23.65;;;16.00;;
39404;SDS011;25121;51.090;17.038;2023-04-12T22:13:03;21.40;;;15.10;;
39404;SDS011;25121;51.090;17.038;2023-04-12T22:14:29;26.05;;;16.10;;
39404;SDS011;25121;51.090;17.038;2023-04-12T22:15:51;24.30;;;17.23;;
39404;SDS011;25121;51.090;17.038;2023-04-12T22:17:15;24.83;;;15.65;;
39404;SDS011;25121;51.090;17.038;2023-04-12T22:18:37;27.25;;;16.80;;
39404;SDS011;25121;51.090;17.038;2023-04-12T22:20:00;28.17;;;16.30;;
39404;SDS011;25121;51.090;17.038;2023-04-12T22:21:21;27.73;;;16.48;;
39404;SDS011;25121;51.090;17.038;2023-04-12T22:22:47;25.98;;;15.82;;
39404;SDS011;25121;51.090;17.038;2023-04-12T22:24:10;25.13;;;15.90;;
39404;SDS011;25121;51.090;17.038;2023-04-12T22:25:33;24.08;;;15.65;;
39404;SDS011;25121;51.090;17.038;2023-04-12T22:26:56;27.55;;;16.60;;
39404;SDS011;25121;51.090;17.038;2023-04-12T22:28:20;25.05;;;16.60;;
39404;SDS011;25121;51.090;17.038;2023-04-12T22:29:45;27.15;;;16.60;;
39404;SDS011;25121;51.090;17.038;2023-04-12T22:31:11;27.13;;;17.70;;
39404;SDS011;25121;51.090;17.038;2023-04-12T22:32:47;28.15;;;16.77;;
39404;SDS011;25121;51.090;17.038;2023-04-12T22:34:10;28.92;;;17.80;;
39404;SDS011;25121;51.090;17.038;2023-04-12T22:35:37;26.92;;;16.83;;
39404;SDS011;25121;51.090;17.038;2023-04-12T22:36:59;29.75;;;17.10;;